Central Valley, New York
Current Conditions -  °F | °C
As of 9:45 AM on Saturday 25 Oct 2014 (Local Time) from KSWF Reporting Station
Clear Clear  
Wind Chill: 52°   Ceiling: Unl
Heat Index: 52°   Visibility: 20mi
Dew Point: 46°   Wind: 7mph
Humidity: 82%   Direction: 220°SW
Pressure: 29.84"   Gusts: NA
Location:  41.33°N, 74.13°W
Report Text: KSWF 251345Z 22006KT 20SM SKC 11/08 A2984
Loading
Personal Weather Stations






























Interactive Weather Map
Tropical Storm Tracking
New forecast layout! Learn more

10-Day Weather Forecast

Advertisements
Track Severe Weather on mobile